createdAt,value
2022-12-20T00:02:03.357Z,99940.00
2022-12-20T00:04:31.462Z,99931.00
2022-12-20T00:06:59.802Z,99922.00
2022-12-20T00:09:36.446Z,99937.00
2022-12-20T00:12:06.850Z,99927.00
2022-12-20T00:14:36.216Z,99914.00
2022-12-20T00:17:06.955Z,99902.00
2022-12-20T00:19:34.960Z,99903.00
2022-12-20T00:22:08.566Z,99897.00
2022-12-20T00:24:36.830Z,99893.00
2022-12-20T00:27:06.275Z,99894.00
2022-12-20T00:29:41.088Z,99893.00
2022-12-20T00:32:09.181Z,99889.00
2022-12-20T00:34:40.426Z,99883.00
2022-12-20T00:37:08.760Z,99873.00
2022-12-20T00:39:36.773Z,99871.00
2022-12-20T00:42:04.955Z,99854.00
2022-12-20T00:44:35.240Z,99876.00
2022-12-20T00:47:05.817Z,99854.00
2022-12-20T00:49:36.007Z,99849.00
2022-12-20T00:52:04.106Z,99853.00
2022-12-20T00:54:34.347Z,99853.00
2022-12-20T00:57:02.768Z,99850.00
2022-12-20T00:59:32.041Z,99863.00
2022-12-20T01:02:01.356Z,99870.00
2022-12-20T01:04:36.434Z,99864.00
2022-12-20T01:07:06.396Z,99872.00
2022-12-20T01:09:36.357Z,99871.00
2022-12-20T01:12:06.713Z,99880.00
2022-12-20T01:14:35.017Z,99874.00
2022-12-20T01:17:06.103Z,99880.00
2022-12-20T01:19:37.726Z,99884.00
2022-12-20T01:22:07.325Z,99875.00
2022-12-20T01:24:37.178Z,99877.00
2022-12-20T01:27:06.685Z,99878.00
2022-12-20T01:29:36.322Z,99869.00
2022-12-20T01:32:06.202Z,99876.00
2022-12-20T01:34:37.787Z,99858.00
2022-12-20T01:37:07.175Z,99859.00
2022-12-20T01:39:38.806Z,99873.00
2022-12-20T01:42:07.240Z,99865.00
2022-12-20T01:45:00.528Z,99864.00
2022-12-20T01:47:40.631Z,99868.00
2022-12-20T01:50:15.183Z,99870.00
2022-12-20T01:52:48.708Z,99859.00
2022-12-20T01:55:24.704Z,99860.00
2022-12-20T01:57:58.656Z,99868.00
2022-12-20T02:00:26.978Z,99858.00
2022-12-20T02:03:01.361Z,99860.00
2022-12-20T02:05:37.192Z,99866.00
2022-12-20T02:08:08.211Z,99868.00
2022-12-20T02:11:02.308Z,99878.00
2022-12-20T02:13:46.909Z,99884.00
2022-12-20T02:16:25.660Z,99875.00
2022-12-20T02:19:07.243Z,99873.00
2022-12-20T02:21:44.288Z,99872.00
2022-12-20T02:24:57.465Z,99881.00
2022-12-20T02:27:56.244Z,99879.00
2022-12-20T02:30:35.584Z,99871.00
2022-12-20T02:33:08.932Z,99884.00
2022-12-20T02:35:41.409Z,99881.00
2022-12-20T02:38:36.533Z,99865.00
2022-12-20T02:41:12.795Z,99864.00
2022-12-20T02:44:06.691Z,99864.00
2022-12-20T02:46:40.320Z,99860.00
2022-12-20T02:49:18.532Z,99862.00
2022-12-20T02:51:54.518Z,99858.00
2022-12-20T02:54:25.498Z,99857.00
2022-12-20T02:57:01.884Z,99852.00
2022-12-20T02:59:43.775Z,99851.00
2022-12-20T03:02:16.646Z,99859.00
2022-12-20T03:04:45.440Z,99869.00
2022-12-20T03:07:15.034Z,99875.00
2022-12-20T03:09:47.841Z,99877.00
2022-12-20T03:12:19.932Z,99869.00
2022-12-20T03:14:49.335Z,99866.00
2022-12-20T03:17:20.609Z,99857.00
2022-12-20T03:19:49.935Z,99864.00
2022-12-20T03:22:18.007Z,99858.00
2022-12-20T03:24:47.116Z,99853.00
2022-12-20T03:27:15.240Z,99856.00
2022-12-20T03:29:44.578Z,99847.00
2022-12-20T03:32:14.392Z,99848.00
2022-12-20T03:34:47.729Z,99854.00
2022-12-20T03:37:19.373Z,99849.00
2022-12-20T03:39:47.436Z,99851.00
2022-12-20T03:42:15.500Z,99849.00
2022-12-20T03:44:44.469Z,99845.00
2022-12-20T03:47:13.176Z,99852.00
2022-12-20T03:49:42.354Z,99852.00
2022-12-20T03:52:16.598Z,99831.00
2022-12-20T03:54:44.624Z,99849.00
2022-12-20T03:57:19.121Z,99832.00
2022-12-20T03:59:50.046Z,99826.00
2022-12-20T04:02:21.313Z,99836.00
2022-12-20T04:04:50.195Z,99838.00
2022-12-20T04:07:21.249Z,99843.00
2022-12-20T04:09:50.596Z,99845.00
2022-12-20T04:12:21.182Z,99845.00
2022-12-20T04:14:51.590Z,99842.00
2022-12-20T04:17:19.734Z,99849.00
2022-12-20T04:19:49.142Z,99839.00
2022-12-20T04:22:21.546Z,99836.00
2022-12-20T04:25:03.655Z,99824.00
2022-12-20T04:27:37.551Z,99829.00
2022-12-20T04:30:10.025Z,99830.00
2022-12-20T04:32:38.404Z,99819.00
2022-12-20T04:35:07.899Z,99821.00
2022-12-20T04:37:42.716Z,99825.00
2022-12-20T04:40:17.033Z,99812.00
2022-12-20T04:42:49.113Z,99820.00
2022-12-20T04:45:18.416Z,99810.00
2022-12-20T04:47:50.152Z,99817.00
2022-12-20T04:50:23.955Z,99826.00
2022-12-20T04:53:13.430Z,99813.00
2022-12-20T04:55:41.986Z,99817.00
2022-12-20T04:58:13.234Z,99817.00
2022-12-20T05:00:42.374Z,99819.00
2022-12-20T05:03:37.967Z,99813.00
2022-12-20T05:06:10.068Z,99813.00
2022-12-20T05:09:05.374Z,99808.00
2022-12-20T05:11:34.837Z,99806.00
2022-12-20T05:14:05.041Z,99797.00
2022-12-20T05:16:34.499Z,99797.00
2022-12-20T05:19:04.886Z,99800.00
2022-12-20T05:21:56.226Z,99809.00
2022-12-20T05:24:45.220Z,99805.00
2022-12-20T05:27:24.797Z,99792.00
2022-12-20T05:29:53.082Z,99767.00
2022-12-20T05:32:25.685Z,99783.00
2022-12-20T05:34:55.160Z,99777.00
2022-12-20T05:37:24.597Z,99771.00
2022-12-20T05:39:55.582Z,99773.00
2022-12-20T05:42:27.254Z,99779.00
2022-12-20T05:44:55.318Z,99782.00
2022-12-20T05:47:25.679Z,99785.00
2022-12-20T05:50:02.301Z,99783.00
2022-12-20T05:52:34.895Z,99777.00
2022-12-20T05:55:07.529Z,99775.00
2022-12-20T05:57:39.316Z,99777.00
2022-12-20T06:00:13.683Z,99779.00
2022-12-20T06:03:04.265Z,99785.00
2022-12-20T06:05:37.707Z,99782.00
2022-12-20T06:08:08.294Z,99775.00
2022-12-20T06:10:40.283Z,99769.00
2022-12-20T06:13:09.392Z,99771.00
2022-12-20T06:15:39.826Z,99771.00
2022-12-20T06:18:09.697Z,99766.00
2022-12-20T06:20:40.465Z,99759.00
2022-12-20T06:23:16.415Z,99767.00
2022-12-20T06:25:58.311Z,99768.00
2022-12-20T06:28:31.006Z,99756.00
2022-12-20T06:31:06.076Z,99758.00
2022-12-20T06:33:45.285Z,99759.00
2022-12-20T06:36:18.714Z,99764.00
2022-12-20T06:38:49.172Z,99759.00
2022-12-20T06:41:21.590Z,99772.00
2022-12-20T06:43:50.056Z,99764.00
2022-12-20T06:46:19.869Z,99764.00
2022-12-20T06:48:49.139Z,99770.00
2022-12-20T06:51:20.615Z,99764.00
2022-12-20T06:53:48.723Z,99766.00
2022-12-20T06:56:20.300Z,99763.00
2022-12-20T06:58:49.111Z,99763.00
2022-12-20T07:01:19.975Z,99752.00
2022-12-20T07:03:50.418Z,99754.00
2022-12-20T07:06:20.416Z,99737.00
2022-12-20T07:08:49.861Z,99745.00
2022-12-20T07:11:19.651Z,99753.00
2022-12-20T07:13:50.230Z,99747.00
2022-12-20T07:16:19.524Z,99747.00
2022-12-20T07:18:51.564Z,99735.00
2022-12-20T07:21:21.242Z,99736.00
2022-12-20T07:29:42.458Z,99754.00
2022-12-20T07:32:14.408Z,99763.00
2022-12-20T07:34:44.330Z,99770.00
2022-12-20T07:37:14.707Z,99768.00
2022-12-20T07:39:42.781Z,99771.00
2022-12-20T07:42:15.587Z,99775.00
2022-12-20T07:44:47.753Z,99770.00
2022-12-20T07:47:16.145Z,99771.00
2022-12-20T07:49:49.405Z,99776.00
2022-12-20T07:52:24.555Z,99790.00
2022-12-20T07:55:00.033Z,99791.00
2022-12-20T07:57:38.723Z,99792.00
2022-12-20T08:00:16.024Z,99800.00
2022-12-20T08:02:52.880Z,99805.00
2022-12-20T08:05:26.070Z,99812.00
2022-12-20T08:07:59.972Z,99807.00
2022-12-20T08:10:30.419Z,99813.00
2022-12-20T08:13:00.322Z,99811.00
2022-12-20T08:15:35.990Z,99808.00
2022-12-20T08:18:11.960Z,99802.00
2022-12-20T08:20:41.322Z,99797.00
2022-12-20T08:23:09.420Z,99796.00
2022-12-20T08:25:42.077Z,99801.00
2022-12-20T08:28:10.882Z,99795.00
2022-12-20T08:30:40.366Z,99788.00
2022-12-20T08:33:08.492Z,99784.00
2022-12-20T08:35:36.572Z,99783.00
2022-12-20T08:38:10.078Z,99789.00
2022-12-20T08:40:40.237Z,99792.00
2022-12-20T08:43:10.371Z,99794.00
2022-12-20T08:45:42.529Z,99800.00
2022-12-20T08:48:11.061Z,99792.00
2022-12-20T08:50:41.197Z,99798.00
2022-12-20T08:53:11.338Z,99793.00
2022-12-20T08:55:41.469Z,99791.00
2022-12-20T08:58:11.862Z,99791.00
2022-12-20T09:00:41.243Z,99796.00
2022-12-20T09:03:11.917Z,99793.00
2022-12-20T09:05:46.564Z,99792.00
2022-12-20T09:08:19.359Z,99787.00
2022-12-20T09:10:47.389Z,99779.00
2022-12-20T09:13:16.648Z,99780.00
2022-12-20T09:15:46.078Z,99788.00
2022-12-20T09:18:14.166Z,99797.00
2022-12-20T09:20:47.761Z,99803.00
2022-12-20T09:23:15.733Z,99792.00
2022-12-20T09:25:50.348Z,99793.00
2022-12-20T09:28:26.235Z,99792.00
2022-12-20T09:31:01.259Z,99800.00
2022-12-20T09:33:32.495Z,99795.00
2022-12-20T09:36:12.417Z,99797.00
2022-12-20T09:38:43.337Z,99790.00
2022-12-20T09:41:47.752Z,99800.00
2022-12-20T09:44:24.321Z,99793.00
2022-12-20T09:47:08.228Z,99794.00
2022-12-20T09:49:46.158Z,99787.00
2022-12-20T09:52:58.140Z,99779.00
2022-12-20T09:55:40.339Z,99790.00
2022-12-20T09:58:33.177Z,99787.00
2022-12-20T10:01:24.401Z,99780.00
2022-12-20T10:03:58.548Z,99777.00
2022-12-20T10:06:47.052Z,99765.00
2022-12-20T10:09:48.686Z,99775.00
2022-12-20T10:12:34.826Z,99773.00
2022-12-20T10:15:25.455Z,99763.00
2022-12-20T10:18:23.564Z,99763.00
2022-12-20T10:21:07.832Z,99759.00
2022-12-20T10:23:48.048Z,99763.00
2022-12-20T10:26:17.797Z,99759.00
2022-12-20T10:28:53.952Z,99756.00
2022-12-20T10:31:25.269Z,99755.00
2022-12-20T10:33:53.376Z,99747.00
2022-12-20T10:36:32.975Z,99744.00
2022-12-20T10:39:17.307Z,99735.00
2022-12-20T10:41:52.080Z,99729.00
2022-12-20T10:44:27.123Z,99698.00
2022-12-20T10:47:04.500Z,99703.00
2022-12-20T10:49:42.429Z,99696.00
2022-12-20T10:52:17.538Z,99688.00
2022-12-20T10:54:48.719Z,99677.00
2022-12-20T10:57:24.937Z,99651.00
2022-12-20T10:59:57.940Z,99660.00
2022-12-20T11:02:40.806Z,99671.00
2022-12-20T11:05:25.648Z,99669.00
2022-12-20T11:10:48.104Z,99668.00
2022-12-20T11:13:36.355Z,99642.00
2022-12-20T11:16:42.496Z,99661.00
2022-12-20T11:19:34.746Z,99659.00
2022-12-20T11:22:23.540Z,99653.00
2022-12-20T11:25:17.250Z,99643.00
2022-12-20T11:28:03.159Z,99645.00
2022-12-20T11:31:07.907Z,99639.00
2022-12-20T11:34:04.375Z,99629.00
2022-12-20T11:37:22.592Z,99627.00
